Time;durP1;ratioP1;P1;durP2;ratioP2;P2;SDS_P1;SDS_P2;PMS_P1;PMS_P2;Temp;Humidity;BMP_temperature;BMP_pressure;BME280_temperature;BME280_humidity;BME280_pressure;Samples;Min_cycle;Max_cycle;Signal;HPM_P1;HPM_P2
2022/03/02 00:02:05;;;;;;;11.88;7.85;;;;;;;3.77;68.64;101332.84;5013391;28;20036;-76
2022/03/02 00:04:31;;;;;;;11.48;7.38;;;;;;;3.63;68.30;101319.28;5013314;28;20029;-75
2022/03/02 00:06:56;;;;;;;12.13;8.43;;;;;;;3.60;68.72;101330.94;5013189;28;20030;-76
2022/03/02 00:09:22;;;;;;;11.68;7.60;;;;;;;3.60;69.00;101341.56;5013116;28;20030;-76
2022/03/02 00:11:48;;;;;;;10.45;7.70;;;;;;;3.38;69.47;101307.94;5011974;28;20025;-76
2022/03/02 00:14:13;;;;;;;12.02;7.05;;;;;;;3.47;69.36;101334.13;5011761;28;20060;-76
2022/03/02 00:16:39;;;;;;;11.40;7.88;;;;;;;3.49;69.86;101332.28;5012917;28;20037;-76
2022/03/02 00:19:06;;;;;;;10.60;7.80;;;;;;;3.36;69.90;101309.78;5012999;28;20037;-77
2022/03/02 00:21:32;;;;;;;13.05;8.10;;;;;;;3.45;69.94;101315.59;5011576;28;20121;-76
2022/03/02 00:23:57;;;;;;;10.85;7.47;;;;;;;3.59;69.72;101318.53;5011306;28;20113;-76
2022/03/02 00:26:23;;;;;;;11.77;7.70;;;;;;;3.58;69.83;101313.28;5011260;28;20120;-76
2022/03/02 00:28:48;;;;;;;10.38;7.88;;;;;;;3.51;69.89;101309.16;5012882;28;20030;-76
2022/03/02 00:31:14;;;;;;;11.52;7.43;;;;;;;3.50;70.00;101312.72;5012626;28;20844;-76
2022/03/02 00:33:40;;;;;;;10.63;7.75;;;;;;;3.43;70.14;101305.94;5012508;28;20056;-76
2022/03/02 00:36:05;;;;;;;10.23;7.25;;;;;;;3.44;70.71;101310.34;5011456;28;20032;-76
2022/03/02 00:38:31;;;;;;;12.73;7.70;;;;;;;3.41;70.21;101298.03;5012347;28;20501;-76
2022/03/02 00:40:56;;;;;;;9.45;6.63;;;;;;;3.45;70.37;101304.97;5011199;28;20118;-77
2022/03/02 00:43:22;;;;;;;8.43;6.43;;;;;;;3.42;70.10;101293.59;5011109;28;20030;-76
2022/03/02 00:45:48;;;;;;;9.23;6.65;;;;;;;3.35;70.02;101270.84;5012039;28;20096;-74
2022/03/02 00:48:14;;;;;;;10.77;7.72;;;;;;;3.40;69.95;101275.03;5012328;28;20029;-76
2022/03/02 00:50:40;;;;;;;12.38;7.40;;;;;;;3.37;69.42;101269.84;5011174;28;20053;-77
2022/03/02 00:53:07;;;;;;;9.07;6.10;;;;;;;3.44;69.43;101281.09;5012371;28;20490;-76
2022/03/02 00:55:33;;;;;;;10.13;7.40;;;;;;;3.44;69.38;101281.09;5012442;28;20038;-76
2022/03/02 00:58:00;;;;;;;8.45;7.03;;;;;;;3.44;69.72;101294.38;5012168;28;20030;-76
2022/03/02 01:00:26;;;;;;;10.82;7.18;;;;;;;3.41;69.51;101291.84;5012245;28;20026;-75
2022/03/02 01:02:51;;;;;;;9.60;6.55;;;;;;;3.25;69.22;101260.56;5012157;28;20390;-77
2022/03/02 01:05:17;;;;;;;10.48;6.88;;;;;;;3.41;69.52;101289.19;5010883;28;20072;-76
2022/03/02 01:07:43;;;;;;;9.38;6.80;;;;;;;3.34;69.64;101272.63;5012101;28;20038;-76
2022/03/02 01:10:09;;;;;;;9.10;5.97;;;;;;;3.26;69.67;101288.91;5010768;28;20034;-75
2022/03/02 01:12:36;;;;;;;8.43;6.80;;;;;;;3.33;70.10;101272.69;5012102;28;20037;-77
2022/03/02 01:15:04;;;;;;;11.10;7.07;;;;;;;3.24;69.47;101274.78;5012060;28;20097;-76
2022/03/02 01:17:30;;;;;;;10.00;6.53;;;;;;;3.16;69.75;101260.09;5012047;28;20108;-77
2022/03/02 01:19:56;;;;;;;9.40;6.78;;;;;;;3.23;69.83;101270.41;5011956;28;20101;-76
2022/03/02 01:22:22;;;;;;;10.57;7.20;;;;;;;3.21;70.02;101260.78;5011962;28;20377;-76
2022/03/02 01:24:48;;;;;;;9.90;6.60;;;;;;;3.23;70.14;101262.44;5010529;28;20551;-76
2022/03/02 01:27:14;;;;;;;10.35;7.32;;;;;;;3.24;70.23;101268.63;5011650;28;20034;-76
2022/03/02 01:29:40;;;;;;;9.35;7.05;;;;;;;3.25;70.33;101265.91;5011431;28;20049;-76
2022/03/02 01:32:08;;;;;;;10.05;6.55;;;;;;;3.28;70.45;101265.78;5011550;28;20033;-76
2022/03/02 01:34:34;;;;;;;11.55;6.60;;;;;;;3.32;70.58;101266.50;5010628;28;20030;-76
2022/03/02 01:37:00;;;;;;;9.38;6.28;;;;;;;3.30;70.70;101257.75;5010338;28;20029;-76
2022/03/02 01:39:26;;;;;;;11.02;7.22;;;;;;;3.37;70.37;101259.19;5010058;28;20030;-76
2022/03/02 01:41:51;;;;;;;9.65;6.75;;;;;;;3.38;70.65;101268.03;5010179;28;20040;-76
2022/03/02 01:44:18;;;;;;;10.70;6.82;;;;;;;3.38;70.46;101260.94;5011630;28;20034;-76
2022/03/02 01:46:43;;;;;;;10.68;6.32;;;;;;;3.41;70.20;101259.94;5010063;28;20515;-76
2022/03/02 01:49:09;;;;;;;12.73;8.30;;;;;;;3.53;70.28;101259.44;5010264;28;20021;-76
2022/03/02 01:51:35;;;;;;;11.00;6.63;;;;;;;3.41;69.61;101241.34;5011653;28;20030;-76
2022/03/02 01:54:01;;;;;;;12.07;7.22;;;;;;;3.45;70.13;101249.13;5011648;28;20030;-76
2022/03/02 01:56:27;;;;;;;9.68;7.13;;;;;;;3.38;70.65;101238.81;5011808;28;20026;-76
2022/03/02 01:58:53;;;;;;;11.05;7.10;;;;;;;3.36;71.03;101230.03;5014362;28;20029;-76
2022/03/02 02:01:19;;;;;;;9.00;6.43;;;;;;;3.41;70.75;101246.66;5015374;28;20117;-76
2022/03/02 02:03:44;;;;;;;9.80;6.75;;;;;;;3.41;70.88;101244.00;5015415;28;20037;-76
2022/03/02 02:06:11;;;;;;;9.68;6.07;;;;;;;3.38;70.83;101239.66;5015401;28;20499;-76
2022/03/02 02:08:37;;;;;;;10.05;6.22;;;;;;;3.36;71.08;101238.00;5015149;28;20503;-76
2022/03/02 02:11:03;;;;;;;9.48;6.78;;;;;;;3.22;71.10;101223.50;5015137;28;20103;-76
2022/03/02 02:13:34;;;;;;;8.02;5.68;;;;;;;3.24;70.73;101231.41;5014248;28;20480;-76
2022/03/02 02:16:01;;;;;;;9.45;6.28;;;;;;;3.27;71.00;101232.13;5015009;28;20104;-76
2022/03/02 02:18:27;;;;;;;9.15;5.88;;;;;;;3.22;70.86;101234.13;5013969;28;20030;-76
2022/03/02 02:20:53;;;;;;;8.48;5.93;;;;;;;3.19;70.83;101228.94;5015016;28;20412;-77
2022/03/02 02:23:19;;;;;;;8.93;6.00;;;;;;;3.10;70.53;101223.13;5015216;28;20105;-76
2022/03/02 02:25:44;;;;;;;7.85;5.75;;;;;;;3.13;70.93;101225.66;5015098;28;20037;-76
2022/03/02 02:28:12;;;;;;;10.80;5.95;;;;;;;3.18;71.36;101229.03;5013616;28;20446;-76
2022/03/02 02:30:38;;;;;;;8.95;5.70;;;;;;;3.16;70.96;101223.75;5013711;28;20065;-76
2022/03/02 02:33:04;;;;;;;6.75;5.10;;;;;;;3.07;71.28;101212.63;5015103;28;20053;-76
2022/03/02 02:35:30;;;;;;;8.30;5.90;;;;;;;3.18;71.69;101216.56;5013558;28;20121;-76
2022/03/02 02:37:58;;;;;;;7.82;5.80;;;;;;;3.01;71.31;101191.63;5015081;28;20540;-76
2022/03/02 02:40:26;;;;;;;7.82;5.45;;;;;;;3.12;71.01;101216.81;5014967;28;20026;-76
2022/03/02 02:42:52;;;;;;;10.30;5.50;;;;;;;3.11;71.44;101211.59;5013615;28;20109;-76
2022/03/02 02:45:23;;;;;;;7.47;5.05;;;;;;;3.16;71.97;101221.09;5012952;28;20053;-76
2022/03/02 02:47:53;;;;;;;9.73;6.20;;;;;;;3.21;71.54;101218.25;5014760;28;20026;-76
2022/03/02 02:50:21;;;;;;;9.55;6.57;;;;;;;3.21;71.42;101211.13;5014910;28;20049;-76
2022/03/02 02:52:47;;;;;;;9.07;5.68;;;;;;;3.17;71.02;101214.84;5014479;28;20033;-76
2022/03/02 02:55:14;;;;;;;8.02;5.50;;;;;;;3.10;70.77;101202.75;5014885;28;20108;-74
2022/03/02 02:57:41;;;;;;;7.05;5.40;;;;;;;3.15;70.75;101206.06;5013107;28;20022;-77
2022/03/02 03:00:12;;;;;;;8.43;5.90;;;;;;;3.20;70.78;101205.88;5014239;28;20116;-75
2022/03/02 03:02:38;;;;;;;11.55;6.45;;;;;;;3.12;70.75;101202.69;5014289;28;20028;-75
2022/03/02 03:05:04;;;;;;;8.32;5.22;;;;;;;3.11;71.02;101191.19;5014331;28;20030;-77
2022/03/02 03:07:30;;;;;;;6.93;4.72;;;;;;;2.96;71.17;101173.25;5013774;28;20069;-77
2022/03/02 03:09:55;;;;;;;7.82;4.93;;;;;;;3.06;71.26;101194.94;5013281;28;20148;-76
2022/03/02 03:12:21;;;;;;;7.47;4.93;;;;;;;3.10;71.42;101201.88;5013933;28;20373;-76
2022/03/02 03:14:46;;;;;;;9.35;5.63;;;;;;;3.10;71.44;101197.44;5012504;28;20022;-76
2022/03/02 03:17:13;;;;;;;11.50;5.22;;;;;;;3.13;71.41;101192.00;5013927;28;20058;-76
2022/03/02 03:19:38;;;;;;;7.18;5.13;;;;;;;3.11;71.49;101188.53;5012362;28;20049;-76
2022/03/02 03:22:06;;;;;;;6.93;4.60;;;;;;;3.24;71.33;101195.03;5012609;28;20377;-75
2022/03/02 03:24:32;;;;;;;7.72;4.97;;;;;;;3.30;71.24;101194.78;5012302;28;20109;-76
2022/03/02 03:26:57;;;;;;;6.53;4.63;;;;;;;3.34;71.05;101189.34;5013422;28;20061;-76
2022/03/02 03:29:23;;;;;;;8.40;4.97;;;;;;;3.33;71.06;101182.31;5013645;28;20124;-77
2022/03/02 03:31:48;;;;;;;7.90;5.13;;;;;;;3.26;71.00;101171.94;5013507;28;20030;-77
2022/03/02 03:34:14;;;;;;;6.57;4.20;;;;;;;3.44;70.62;101180.03;5013626;28;20037;-76
2022/03/02 03:36:41;;;;;;;8.90;4.90;;;;;;;3.37;70.27;101173.25;5013624;28;20021;-75
2022/03/02 03:39:07;;;;;;;7.90;4.97;;;;;;;3.36;70.16;101166.22;5013452;28;20083;-75
2022/03/02 03:41:33;;;;;;;6.32;4.65;;;;;;;3.41;70.23;101175.72;5013405;28;20029;-75
2022/03/02 03:43:58;;;;;;;6.00;5.03;;;;;;;3.46;70.32;101181.69;5013183;28;20022;-75
2022/03/02 03:46:24;;;;;;;6.72;4.57;;;;;;;3.44;70.34;101172.06;5013149;28;20053;-76
2022/03/02 03:48:50;;;;;;;6.28;4.07;;;;;;;3.47;69.69;101185.22;5013350;28;20456;-76
2022/03/02 03:51:15;;;;;;;6.20;4.15;;;;;;;3.45;70.00;101179.13;5011987;28;20045;-76
2022/03/02 03:53:41;;;;;;;8.18;4.65;;;;;;;3.47;70.08;101175.47;5013283;28;20459;-77
2022/03/02 03:56:07;;;;;;;8.00;5.22;;;;;;;3.53;70.27;101174.31;5013242;28;20022;-77
2022/03/02 03:58:32;;;;;;;14.38;7.05;;;;;;;3.61;70.03;101177.50;5013275;28;20026;-77
2022/03/02 04:00:58;;;;;;;7.75;5.22;;;;;;;3.58;69.95;101167.88;5011675;28;20041;-76
2022/03/02 04:03:24;;;;;;;5.47;4.47;;;;;;;3.71;69.27;101165.53;5011515;28;20030;-75
2022/03/02 04:05:50;;;;;;;7.65;5.20;;;;;;;3.78;68.89;101174.97;5012838;28;20037;-76
2022/03/02 04:08:15;;;;;;;7.90;5.38;;;;;;;3.71;68.79;101168.19;5012804;28;20045;-76
2022/03/02 04:10:41;;;;;;;7.32;4.82;;;;;;;3.66;69.20;101165.75;5012960;28;20034;-76
2022/03/02 04:13:06;;;;;;;7.25;5.07;;;;;;;3.65;69.10;101157.84;5013135;28;20036;-77
2022/03/02 04:15:33;;;;;;;6.05;4.63;;;;;;;3.72;68.74;101159.28;5013309;28;20195;-77
2022/03/02 04:17:58;;;;;;;8.70;4.60;;;;;;;3.55;68.58;101157.38;5011925;28;20030;-78
2022/03/02 04:20:24;;;;;;;7.15;5.28;;;;;;;3.43;69.15;101133.09;5013065;28;20018;-77
2022/03/02 04:22:50;;;;;;;9.38;5.30;;;;;;;3.29;69.29;101142.56;5013224;28;20026;-77
2022/03/02 04:25:15;;;;;;;7.88;5.30;;;;;;;3.35;69.44;101144.09;5011697;28;20030;-79
2022/03/02 04:27:41;;;;;;;7.13;5.18;;;;;;;3.36;69.83;101143.19;5012529;28;20401;-78
2022/03/02 04:30:08;;;;;;;6.00;4.75;;;;;;;3.29;69.66;101136.38;5012669;28;20103;-77
2022/03/02 04:32:34;;;;;;;5.78;4.45;;;;;;;3.26;69.90;101134.72;5011272;28;20029;-77
2022/03/02 04:35:00;;;;;;;7.22;5.10;;;;;;;3.40;69.80;101141.22;5011533;28;20032;-78
2022/03/02 04:37:26;;;;;;;8.05;5.15;;;;;;;3.41;69.85;101145.63;5012934;28;20029;-77
2022/03/02 04:39:51;;;;;;;12.98;7.28;;;;;;;3.21;69.99;101112.78;5011604;28;20033;-77
2022/03/02 04:42:17;;;;;;;9.30;5.90;;;;;;;3.13;69.74;101106.94;5012982;28;20030;-78
2022/03/02 04:44:42;;;;;;;7.70;4.65;;;;;;;3.26;70.27;101153.34;5012501;28;20033;-79
2022/03/02 04:47:08;;;;;;;16.23;5.10;;;;;;;3.17;70.21;101143.09;5012275;28;20236;-77
2022/03/02 04:49:34;;;;;;;7.90;4.95;;;;;;;3.18;70.43;101146.63;5012407;28;20384;-78
2022/03/02 04:51:59;;;;;;;6.32;4.22;;;;;;;3.11;70.24;101124.75;5012344;28;20153;-77
2022/03/02 04:55:25;;;;;;;7.78;4.93;;;;;;;3.23;70.48;101149.94;5011952;28;20529;-78
2022/03/02 04:57:20;;;;;;;6.00;4.40;;;;;;;3.14;70.75;101159.19;5003126;28;20216;-76
2022/03/02 04:59:45;;;;;;;7.18;5.10;;;;;;;3.18;71.07;101159.91;5012282;28;20522;-79
2022/03/02 05:02:11;;;;;;;10.32;5.88;;;;;;;3.19;71.02;101159.84;5011599;28;20053;-77
2022/03/02 05:04:36;;;;;;;9.35;6.07;;;;;;;3.21;71.23;101163.28;5012073;28;20029;-74
2022/03/02 05:07:02;;;;;;;11.80;7.38;;;;;;;3.22;70.90;101158.84;5012720;28;20038;-73
2022/03/02 05:09:27;;;;;;;12.80;9.57;;;;;;;3.18;71.45;101152.78;5012206;28;20030;-77
2022/03/02 05:11:53;;;;;;;13.57;9.45;;;;;;;3.17;71.57;101151.06;5012107;28;20080;-79
2022/03/02 05:14:19;;;;;;;10.30;7.10;;;;;;;3.20;71.67;101150.94;5012787;28;20107;-81
2022/03/02 05:16:44;;;;;;;7.78;5.45;;;;;;;3.22;71.90;101166.81;5013441;28;20026;-78
2022/03/02 05:19:10;;;;;;;8.68;5.50;;;;;;;3.19;71.47;101141.22;5009742;28;20041;-80
2022/03/02 05:21:36;;;;;;;7.25;4.93;;;;;;;3.20;71.24;101137.66;5011529;28;20097;-78
2022/03/02 05:24:02;;;;;;;6.85;5.72;;;;;;;3.27;71.40;101140.91;5012787;28;20026;-81
2022/03/02 05:26:28;;;;;;;6.93;5.05;;;;;;;3.51;71.45;101146.94;5013161;28;20025;-77
2022/03/02 05:28:53;;;;;;;9.88;6.07;;;;;;;3.55;70.87;101137.88;5012421;28;20548;-82
2022/03/02 05:31:20;;;;;;;11.27;7.15;;;;;;;3.77;70.73;101165.25;5012561;28;20037;-79
2022/03/02 05:33:47;;;;;;;13.98;6.97;;;;;;;3.82;70.69;101155.31;5012204;28;20029;-78
2022/03/02 05:36:13;;;;;;;11.52;7.07;;;;;;;3.89;70.60;101145.22;5011772;28;20033;-77
2022/03/02 05:38:38;;;;;;;11.68;7.25;;;;;;;4.05;70.46;101152.44;5010992;28;20030;-76
2022/03/02 05:41:04;;;;;;;11.88;7.38;;;;;;;3.95;70.16;101131.63;5011507;28;20053;-77
2022/03/02 05:43:29;;;;;;;11.13;7.00;;;;;;;4.11;70.02;101159.28;5011341;28;20030;-78
2022/03/02 05:45:55;;;;;;;11.75;6.90;;;;;;;3.96;70.28;101131.56;5009594;28;20154;-78
2022/03/02 05:48:21;;;;;;;11.05;6.65;;;;;;;4.00;70.00;101154.47;5011001;28;20084;-76
2022/03/02 05:50:46;;;;;;;10.32;6.63;;;;;;;3.91;70.06;101138.91;5013303;28;20025;-77
2022/03/02 05:53:11;;;;;;;10.80;5.90;;;;;;;3.96;70.58;101130.72;5011740;28;20488;-77
2022/03/02 05:55:37;;;;;;;7.68;5.85;;;;;;;4.09;70.36;101135.41;5010256;28;20032;-76
2022/03/02 05:58:03;;;;;;;8.02;5.78;;;;;;;4.03;70.34;101141.00;5011066;28;20400;-76
2022/03/02 06:00:28;;;;;;;8.35;6.03;;;;;;;4.06;70.32;101132.88;5011171;28;20030;-77
2022/03/02 06:02:54;;;;;;;8.23;6.05;;;;;;;4.16;70.41;101144.81;5010005;28;20045;-76
2022/03/02 06:05:19;;;;;;;8.98;5.75;;;;;;;4.21;70.41;101144.59;5011406;28;20024;-76
2022/03/02 06:07:45;;;;;;;16.30;6.45;;;;;;;4.27;70.48;101161.16;5010477;28;20420;-78
2022/03/02 06:10:13;;;;;;;10.85;7.55;;;;;;;4.26;70.63;101151.44;5009666;28;20116;-78
2022/03/02 06:12:39;;;;;;;13.55;8.85;;;;;;;4.35;70.78;101150.13;5011258;28;20033;-76
2022/03/02 06:15:07;;;;;;;15.27;7.07;;;;;;;4.45;70.80;101150.56;5011424;28;20030;-77
2022/03/02 06:17:33;;;;;;;14.95;8.52;;;;;;;4.56;70.66;101137.56;5009562;28;20480;-77
2022/03/02 06:19:59;;;;;;;12.65;7.05;;;;;;;4.60;70.30;101156.03;5011023;28;20025;-77
2022/03/02 06:22:25;;;;;;;13.82;7.20;;;;;;;4.79;70.29;101161.31;5009409;28;20464;-77
2022/03/02 06:24:52;;;;;;;8.57;6.60;;;;;;;4.85;69.86;101158.34;5011060;28;20056;-78
2022/03/02 06:27:20;;;;;;;9.60;6.53;;;;;;;4.79;69.54;101140.00;5009453;28;20032;-77
2022/03/02 06:29:46;;;;;;;8.63;6.63;;;;;;;4.72;68.96;101125.25;5011127;28;20026;-77
2022/03/02 06:32:11;;;;;;;14.80;9.20;;;;;;;4.95;69.07;101148.97;5011023;28;20042;-76
2022/03/02 06:34:37;;;;;;;17.75;9.65;;;;;;;4.87;69.42;101129.81;5010894;28;20065;-76
2022/03/02 06:37:05;;;;;;;18.15;11.15;;;;;;;5.07;69.20;101155.47;5009647;28;20014;-77
2022/03/02 06:39:31;;;;;;;13.68;9.73;;;;;;;5.02;69.32;101147.69;5009339;28;20026;-77
2022/03/02 06:42:21;;;;;;;14.00;8.13;;;;;;;5.04;68.76;101156.50;5010570;28;20109;-76
2022/03/02 06:45:00;;;;;;;14.18;7.03;;;;;;;5.02;68.07;101145.03;5014456;28;20022;-77
2022/03/02 06:47:30;;;;;;;12.13;7.43;;;;;;;4.86;68.05;101141.44;5014563;28;20042;-77
2022/03/02 06:50:02;;;;;;;9.50;6.78;;;;;;;4.96;68.34;101150.66;5014518;28;20027;-76
2022/03/02 06:52:33;;;;;;;10.87;7.97;;;;;;;4.87;68.41;101128.00;5014499;28;20030;-77
2022/03/02 06:55:03;;;;;;;10.10;7.30;;;;;;;4.94;67.88;101148.09;5014153;28;20029;-78
2022/03/02 06:57:29;;;;;;;10.65;7.18;;;;;;;4.98;68.22;101145.28;5014110;28;20034;-76
2022/03/02 07:00:00;;;;;;;11.13;7.18;;;;;;;4.89;68.19;101136.78;5014333;28;20041;-77
2022/03/02 07:02:43;;;;;;;11.27;7.28;;;;;;;4.81;68.40;101123.00;5014207;28;20028;-77
2022/03/02 07:05:09;;;;;;;11.70;7.65;;;;;;;4.97;68.41;101144.41;5014327;28;20457;-77
2022/03/02 07:07:36;;;;;;;12.15;7.95;;;;;;;4.92;68.32;101144.63;5012874;28;20040;-77
2022/03/02 07:10:03;;;;;;;16.05;8.05;;;;;;;4.92;68.17;101127.81;5012995;28;20025;-76
2022/03/02 07:12:29;;;;;;;12.88;7.68;;;;;;;4.89;67.96;101120.78;5014176;28;20068;-77
2022/03/02 07:14:55;;;;;;;22.48;8.95;;;;;;;5.03;68.12;101132.56;5014302;28;20546;-79
2022/03/02 07:17:21;;;;;;;15.55;8.48;;;;;;;5.04;68.34;101126.31;5014287;28;20523;-77
2022/03/02 07:19:47;;;;;;;13.20;9.18;;;;;;;5.05;67.85;101120.88;5013907;28;20021;-78
2022/03/02 07:22:17;;;;;;;13.82;9.23;;;;;;;5.24;67.39;101142.16;5012776;28;20037;-75
2022/03/02 07:24:53;;;;;;;15.48;9.90;;;;;;;5.33;67.48;101139.88;5013784;28;20064;-78
2022/03/02 07:27:19;;;;;;;15.93;9.45;;;;;;;5.40;66.98;101127.09;5015547;28;20022;-78
2022/03/02 07:29:49;;;;;;;15.07;9.13;;;;;;;5.37;66.54;101127.25;5015498;28;20033;-77
2022/03/02 07:32:21;;;;;;;15.70;9.30;;;;;;;5.39;66.26;101133.34;5013618;28;20108;-77
2022/03/02 07:34:49;;;;;;;20.55;10.82;;;;;;;5.53;66.70;101121.97;5012182;28;20405;-76
2022/03/02 07:37:16;;;;;;;17.23;10.98;;;;;;;5.44;66.45;101108.16;5013858;28;20030;-77
2022/03/02 07:39:43;;;;;;;23.02;11.30;;;;;;;5.65;66.29;101121.31;5013752;28;20475;-77
2022/03/02 07:42:08;;;;;;;16.85;10.88;;;;;;;5.55;65.60;101104.06;5013932;28;20030;-77
2022/03/02 07:44:34;;;;;;;20.45;13.73;;;;;;;5.78;65.46;101106.41;5012195;28;20526;-77
2022/03/02 07:46:59;;;;;;;14.38;9.80;;;;;;;5.90;64.39;101127.13;5013637;28;20049;-78
2022/03/02 07:49:25;;;;;;;10.70;7.78;;;;;;;5.96;64.11;101106.25;5014966;28;20029;-77
2022/03/02 07:51:54;;;;;;;7.13;5.18;;;;;;;6.00;62.92;101113.16;5012192;28;20026;-78
2022/03/02 07:54:21;;;;;;;10.30;6.85;;;;;;;5.87;62.72;101111.25;5011783;28;20412;-78
2022/03/02 07:56:48;;;;;;;17.80;7.78;;;;;;;5.93;63.80;101118.94;5013242;28;20397;-78
2022/03/02 07:59:17;;;;;;;12.00;8.15;;;;;;;5.86;63.74;101104.19;5012228;28;20025;-77
2022/03/02 08:01:44;;;;;;;10.35;6.68;;;;;;;6.10;64.00;101124.22;5013509;28;20029;-77
2022/03/02 08:04:10;;;;;;;11.63;7.00;;;;;;;6.11;63.11;101120.59;5012931;28;20034;-77
2022/03/02 08:06:38;;;;;;;15.27;7.50;;;;;;;6.15;63.19;101095.44;5012871;28;20076;-78
2022/03/02 08:09:06;;;;;;;9.90;6.43;;;;;;;6.24;63.55;101107.44;5011538;28;20069;-77
2022/03/02 08:11:33;;;;;;;10.52;7.30;;;;;;;6.24;63.70;101104.75;5012791;28;20037;-77
2022/03/02 08:14:00;;;;;;;11.32;7.15;;;;;;;6.12;63.02;101092.94;5012821;28;20030;-76
2022/03/02 08:16:29;;;;;;;14.45;7.72;;;;;;;6.08;63.80;101080.72;5011396;28;20092;-76
2022/03/02 08:18:55;;;;;;;19.70;10.00;;;;;;;6.07;63.90;101087.00;5012525;28;20594;-77
2022/03/02 08:21:26;;;;;;;20.42;10.13;;;;;;;5.92;64.41;101058.47;5012661;28;20432;-77
2022/03/02 08:23:56;;;;;;;11.00;8.13;;;;;;;5.93;63.57;101078.91;5013053;28;20056;-78
2022/03/02 08:26:23;;;;;;;15.30;9.55;;;;;;;5.76;63.40;101070.91;5012243;28;20461;-77
2022/03/02 08:28:53;;;;;;;15.52;9.00;;;;;;;5.82;64.67;101066.09;5013285;28;20516;-78
2022/03/02 08:31:19;;;;;;;20.55;10.15;;;;;;;6.03;65.11;101090.78;5012324;28;20511;-77
2022/03/02 08:33:45;;;;;;;13.00;7.85;;;;;;;5.84;64.19;101074.03;5012212;28;20057;-76
2022/03/02 08:36:11;;;;;;;12.05;7.35;;;;;;;5.73;64.22;101079.06;5011682;28;20036;-77
2022/03/02 08:38:42;;;;;;;14.00;7.38;;;;;;;5.49;64.83;101078.59;5011440;28;20117;-77
2022/03/02 08:41:10;;;;;;;15.82;8.95;;;;;;;5.37;65.39;101089.91;5011989;28;20076;-77
2022/03/02 08:43:36;;;;;;;13.00;8.77;;;;;;;5.31;66.53;101080.44;5012035;28;20026;-77
2022/03/02 08:46:04;;;;;;;11.63;8.15;;;;;;;5.37;67.30;101082.78;5011769;28;20519;-77
2022/03/02 08:48:30;;;;;;;10.80;7.68;;;;;;;5.26;67.37;101098.44;5012138;28;20654;-79
2022/03/02 08:50:59;;;;;;;10.15;8.05;;;;;;;5.18;67.41;101075.81;5012146;28;20029;-77
2022/03/02 08:53:25;;;;;;;14.00;9.55;;;;;;;5.14;67.87;101080.44;5012391;28;20030;-76
2022/03/02 08:55:52;;;;;;;12.93;8.77;;;;;;;5.23;68.41;101087.94;5011787;28;20075;-78
2022/03/02 08:58:18;;;;;;;11.93;8.20;;;;;;;5.10;68.69;101070.03;5011948;28;20029;-78
2022/03/02 09:00:44;;;;;;;18.55;8.50;;;;;;;5.15;69.02;101071.50;5011877;28;20022;-77
2022/03/02 09:03:14;;;;;;;14.73;9.63;;;;;;;5.07;69.07;101076.38;5011912;28;20025;-76
2022/03/02 09:05:41;;;;;;;14.32;9.25;;;;;;;5.05;69.34;101058.72;5011635;28;20131;-78
2022/03/02 09:08:08;;;;;;;15.65;9.48;;;;;;;5.09;70.05;101055.81;5011152;28;20025;-77
2022/03/02 09:10:35;;;;;;;15.02;10.63;;;;;;;5.27;70.51;101052.19;5011561;28;20033;-77
2022/03/02 09:13:02;;;;;;;12.18;9.07;;;;;;;5.38;70.57;101039.13;5011483;28;20026;-78
2022/03/02 09:15:28;;;;;;;15.75;10.30;;;;;;;5.50;70.18;101058.97;5011167;28;20026;-76
2022/03/02 09:17:54;;;;;;;25.60;12.02;;;;;;;5.47;69.98;101043.97;5011228;28;20022;-78
2022/03/02 09:20:20;;;;;;;14.80;10.52;;;;;;;5.47;69.71;101016.47;5011449;28;20026;-77
2022/03/02 09:22:46;;;;;;;14.20;10.35;;;;;;;5.76;69.89;101055.75;5011480;28;20034;-75
2022/03/02 09:25:11;;;;;;;14.90;10.40;;;;;;;5.79;70.02;101044.91;5009815;28;20018;-74
2022/03/02 09:27:37;;;;;;;16.33;11.05;;;;;;;5.78;69.84;101039.66;5009938;28;20345;-74
2022/03/02 09:30:07;;;;;;;15.55;10.40;;;;;;;5.87;69.94;101048.03;5011148;28;20441;-76
2022/03/02 09:32:34;;;;;;;15.93;11.52;;;;;;;5.96;69.92;101041.34;5010042;28;20033;-77
2022/03/02 09:35:00;;;;;;;20.45;11.88;;;;;;;6.03;69.29;101037.38;5009576;28;20034;-75
2022/03/02 09:37:28;;;;;;;20.83;13.00;;;;;;;6.11;69.73;101029.81;5009975;28;20033;-75
2022/03/02 09:39:54;;;;;;;18.73;12.48;;;;;;;6.26;69.36;101028.06;5011289;28;20022;-75
2022/03/02 09:42:26;;;;;;;23.45;8.90;;;;;;;6.24;66.25;101030.81;5011210;28;20385;-74
2022/03/02 09:45:06;;;;;;;11.67;8.03;;;;;;;6.04;65.66;101033.75;5011117;28;20079;-75
2022/03/02 09:47:49;;;;;;;15.05;9.95;;;;;;;5.99;66.52;101035.84;5010976;28;20153;-75
2022/03/02 09:50:17;;;;;;;15.07;9.48;;;;;;;5.97;65.16;101032.38;5009883;28;20026;-74
2022/03/02 09:52:45;;;;;;;12.02;8.00;;;;;;;5.87;65.58;101021.34;5011226;28;20488;-75
2022/03/02 09:55:13;;;;;;;12.93;8.77;;;;;;;5.84;66.52;101010.81;5011332;28;20521;-75
2022/03/02 09:57:48;;;;;;;13.27;8.43;;;;;;;5.85;66.25;101011.69;5010894;28;20104;-75
2022/03/02 10:00:18;;;;;;;8.07;6.07;;;;;;;5.79;65.72;101006.69;5009846;28;20049;-74
2022/03/02 10:02:47;;;;;;;12.02;7.30;;;;;;;5.75;65.64;101005.97;5011044;28;20071;-75
2022/03/02 10:05:16;;;;;;;13.32;7.63;;;;;;;5.73;66.55;100996.34;5011194;28;20495;-74
2022/03/02 10:07:53;;;;;;;14.70;9.38;;;;;;;5.82;66.84;100996.69;5011129;28;20037;-75
2022/03/02 10:10:22;;;;;;;9.23;6.88;;;;;;;5.99;65.87;100993.97;5009724;28;20038;-74
2022/03/02 10:12:53;;;;;;;11.18;7.30;;;;;;;5.96;65.11;100971.94;5011085;28;20033;-74
2022/03/02 10:15:19;;;;;;;9.93;7.22;;;;;;;6.01;64.84;100981.41;5011063;28;20079;-75
2022/03/02 10:17:51;;;;;;;11.23;7.38;;;;;;;5.88;64.53;100975.03;5011870;28;20060;-75
2022/03/02 10:20:20;;;;;;;18.00;8.13;;;;;;;5.73;64.88;100956.31;5013789;28;20179;-75
2022/03/02 10:22:46;;;;;;;14.45;7.88;;;;;;;5.81;66.05;100962.09;5014470;28;20065;-75
2022/03/02 10:25:15;;;;;;;12.73;7.68;;;;;;;5.97;66.34;100955.81;5013724;28;20552;-75
2022/03/02 10:27:59;;;;;;;11.43;8.02;;;;;;;6.14;66.14;100954.00;5014580;28;20058;-75
2022/03/02 10:30:32;;;;;;;14.43;7.97;;;;;;;6.31;65.12;100949.38;5014612;28;20049;-74
2022/03/02 10:33:21;;;;;;;13.50;7.88;;;;;;;6.45;64.49;100944.09;5014537;28;20030;-74
2022/03/02 10:35:51;;;;;;;11.27;6.82;;;;;;;6.49;63.62;100945.63;5014568;28;20451;-75
2022/03/02 10:38:28;;;;;;;13.05;7.88;;;;;;;6.47;64.17;100938.66;5014620;28;20037;-74
2022/03/02 10:40:59;;;;;;;13.23;7.78;;;;;;;6.37;63.84;100927.66;5014839;28;20075;-75
2022/03/02 10:43:34;;;;;;;12.68;7.32;;;;;;;6.44;63.89;100926.34;5012775;28;20021;-75
2022/03/02 10:46:01;;;;;;;14.23;8.10;;;;;;;6.44;63.82;100921.00;5013835;28;20080;-75
2022/03/02 10:48:55;;;;;;;12.70;6.38;;;;;;;6.33;63.45;100925.28;5014159;28;20030;-74
2022/03/02 10:51:24;;;;;;;12.98;7.13;;;;;;;6.17;63.87;100919.09;5009072;28;20496;-75
2022/03/02 10:53:52;;;;;;;18.25;6.35;;;;;;;6.12;64.09;100911.34;5014077;28;20072;-75
2022/03/02 10:56:20;;;;;;;13.77;5.63;;;;;;;6.08;64.05;100900.97;5012627;28;20025;-75
2022/03/02 10:58:49;;;;;;;14.50;6.53;;;;;;;6.05;64.49;100896.66;5012767;28;20030;-74
2022/03/02 11:01:17;;;;;;;12.98;8.00;;;;;;;6.15;64.69;100878.25;5013942;28;20025;-75
2022/03/02 11:03:44;;;;;;;8.48;5.20;;;;;;;6.21;64.04;100881.44;5013652;28;20030;-75
2022/03/02 11:06:11;;;;;;;8.50;5.90;;;;;;;6.34;64.03;100890.44;5012667;28;20018;-75
2022/03/02 11:08:38;;;;;;;13.75;6.38;;;;;;;6.37;64.21;100882.25;5013595;28;20137;-74
2022/03/02 11:11:07;;;;;;;10.45;6.70;;;;;;;6.49;64.76;100875.31;5012322;28;20172;-75
2022/03/02 11:13:33;;;;;;;13.32;7.28;;;;;;;6.70;63.34;100878.47;5013635;28;20508;-77
2022/03/02 11:16:06;;;;;;;11.63;7.35;;;;;;;6.60;61.89;100869.31;5013519;28;20057;-79
2022/03/02 11:18:33;;;;;;;13.57;8.13;;;;;;;6.44;61.43;100866.72;5012571;28;20025;-77
2022/03/02 11:21:17;;;;;;;9.48;6.20;;;;;;;6.30;62.00;100875.53;5013610;28;20025;-79
2022/03/02 11:23:51;;;;;;;11.65;6.55;;;;;;;6.17;62.65;100858.56;5013449;28;20025;-77
2022/03/02 11:26:26;;;;;;;10.52;6.85;;;;;;;6.08;62.81;100843.09;5013379;28;20022;-77
2022/03/02 11:28:57;;;;;;;8.40;6.20;;;;;;;6.23;63.03;100851.97;5012926;28;20484;-78